This is the latest recevied weather packets stored in our database for station/object SP3SWJ-13. If no packets are shown the sender has not sent any weather packets the latest 10 day(s).
| Time | Temp. | Humidity | Pressure | Rain* | Wind** | Luminosity | Snow |
|---|---|---|---|---|---|---|---|
| 1777799444 | 24.44° C | 31% | 1005.8 hPa | - | - | 632 W/m² | - |
| 1777799142 | 25° C | 31% | 1005.8 hPa | - | - | 642 W/m² | - |
| 1777798842 | 24.44° C | 30% | 1005.9 hPa | - | - | 630 W/m² | - |
| 1777798540 | 24.44° C | 30% | 1005.9 hPa | - | - | 613 W/m² | - |
| 1777798240 | 25° C | 29% | 1005.9 hPa | - | - | 597 W/m² | - |
| 1777797939 | 24.44° C | 31% | 1005.9 hPa | - | - | 603 W/m² | - |
| 1777797638 | 24.44° C | 29% | 1006 hPa | - | - | 600 W/m² | - |
| 1777797337 | 23.89° C | 30% | 1006 hPa | - | - | 592 W/m² | - |
| 1777797036 | 23.89° C | 31% | 1006 hPa | - | - | 574 W/m² | - |
| 1777796735 | 23.89° C | 31% | 1006.1 hPa | - | - | 552 W/m² | - |
| 1777796434 | 23.33° C | 34% | 1006.1 hPa | - | - | 539 W/m² | - |
| 1777796133 | 22.78° C | 35% | 1006.1 hPa | - | - | 543 W/m² | - |
| 1777795833 | 23.33° C | 34% | 1006.1 hPa | - | - | 522 W/m² | - |
| 1777795532 | 22.78° C | 35% | 1006.1 hPa | - | - | 513 W/m² | - |
| 1777795231 | 22.22° C | 38% | 1006.2 hPa | - | - | 473 W/m² | - |
| 1777794930 | 21.67° C | 38% | 1006.2 hPa | - | - | 417 W/m² | - |
| 1777794629 | 21.11° C | 38% | 1006.3 hPa | - | - | 451 W/m² | - |
| 1777794328 | 22.22° C | 36% | 1006.3 hPa | - | - | 460 W/m² | - |
| 1777794028 | 21.11° C | 37% | 1006.3 hPa | - | - | 445 W/m² | - |
| 1777793726 | 20.56° C | 40% | 1006.4 hPa | - | - | 409 W/m² | - |
| 1777793425 | 20° C | 40% | 1006.4 hPa | - | - | 381 W/m² | - |
| 1777793125 | 19.44° C | 42% | 1006.4 hPa | - | - | 369 W/m² | - |
| 1777792824 | 18.89° C | 41% | 1006.5 hPa | - | - | 310 W/m² | - |
| 1777792523 | 18.89° C | 43% | 1006.5 hPa | - | - | 359 W/m² | - |
| 1777792221 | 18.89° C | 43% | 1006.5 hPa | - | - | 348 W/m² | - |
* Rain since midnight (hover to see other rain measurements)
** Current wind speed in m/s (hover to see current wind gust speed)